Time;durP1;ratioP1;P1;durP2;ratioP2;P2;SDS_P1;SDS_P2;PMS_P1;PMS_P2;Temp;Humidity;BMP_temperature;BMP_pressure;BME280_temperature;BME280_humidity;BME280_pressure;Samples;Min_cycle;Max_cycle;Signal;HPM_P1;HPM_P2
2022/01/17 00:01:30;;;;;;;9.63;1.60;;;5.90;99.90;;;;;;4934200;28;20082;-70
2022/01/17 00:03:55;;;;;;;18.27;2.55;;;5.90;99.90;;;;;;4930207;28;20051;-71
2022/01/17 00:06:21;;;;;;;17.50;1.95;;;6.00;99.90;;;;;;4932212;28;20048;-70
2022/01/17 00:08:49;;;;;;;18.90;2.35;;;5.80;99.90;;;;;;4930042;28;20451;-71
2022/01/17 00:11:16;;;;;;;14.02;1.65;;;5.80;99.90;;;;;;4934625;28;20066;-70
2022/01/17 00:13:47;;;;;;;18.73;2.00;;;5.80;99.90;;;;;;4932354;28;20914;-71
2022/01/17 00:16:19;;;;;;;15.77;1.90;;;5.80;99.90;;;;;;4926975;28;20058;-70
2022/01/17 00:21:11;;;;;;;16.98;2.45;;;5.70;99.90;;;;;;4932734;28;20050;-71
2022/01/17 00:23:37;;;;;;;11.77;1.92;;;5.70;99.90;;;;;;4936982;28;20063;-71
2022/01/17 00:26:04;;;;;;;18.80;3.03;;;5.70;99.90;;;;;;4937008;28;20520;-71
2022/01/17 00:28:30;;;;;;;19.75;3.17;;;5.70;99.90;;;;;;4935132;28;20067;-70
2022/01/17 00:30:55;;;;;;;17.00;2.50;;;5.60;99.90;;;;;;4928206;28;20487;-71
2022/01/17 00:33:21;;;;;;;15.30;2.33;;;5.70;99.90;;;;;;4930745;28;20043;-70
2022/01/17 00:35:46;;;;;;;16.20;2.22;;;5.70;99.90;;;;;;4937872;28;20099;-71
2022/01/17 00:38:12;;;;;;;14.80;2.25;;;5.70;99.90;;;;;;4934619;28;20059;-70
2022/01/17 00:40:42;;;;;;;11.50;1.58;;;5.70;99.90;;;;;;4932940;28;20054;-71
2022/01/17 00:43:08;;;;;;;14.60;2.10;;;5.70;99.90;;;;;;4932902;28;20052;-71
2022/01/17 00:45:37;;;;;;;14.10;1.98;;;5.70;99.90;;;;;;4934249;28;20082;-71
2022/01/17 00:48:03;;;;;;;15.88;2.58;;;5.70;99.90;;;;;;4934469;28;20053;-70
2022/01/17 00:50:29;;;;;;;11.25;1.90;;;5.70;99.90;;;;;;4939235;28;20081;-71
2022/01/17 00:52:55;;;;;;;18.77;2.05;;;5.70;99.90;;;;;;4931825;28;20105;-71
2022/01/17 00:55:21;;;;;;;22.38;2.08;;;5.70;99.90;;;;;;4932327;28;20059;-70
2022/01/17 00:57:47;;;;;;;12.90;1.92;;;5.70;99.90;;;;;;4932586;28;20044;-71
2022/01/17 01:00:14;;;;;;;12.52;1.80;;;5.70;99.90;;;;;;4929516;28;20098;-70
2022/01/17 01:02:40;;;;;;;16.17;1.83;;;5.70;99.90;;;;;;4938499;28;20415;-71
2022/01/17 01:05:07;;;;;;;16.77;2.25;;;5.70;99.90;;;;;;4941266;28;20086;-70
2022/01/17 01:07:33;;;;;;;15.25;2.67;;;5.70;99.90;;;;;;4935540;28;20051;-70
2022/01/17 01:10:06;;;;;;;18.92;2.10;;;5.70;99.90;;;;;;4936128;28;20044;-71
2022/01/17 01:12:32;;;;;;;10.60;1.83;;;5.60;99.90;;;;;;4930218;28;20105;-71
2022/01/17 01:14:57;;;;;;;12.07;2.00;;;5.70;99.90;;;;;;4930973;28;20055;-70
2022/01/17 01:18:14;;;;;;;15.45;1.70;;;5.60;99.90;;;;;;4926366;28;20042;-71
2022/01/17 01:20:22;;;;;;;14.55;2.42;;;5.60;99.90;;;;;;4950749;28;20418;-70
2022/01/17 01:28:16;;;;;;;13.20;2.83;;;5.50;99.90;;;;;;4944794;28;20465;-69
2022/01/17 01:30:46;;;;;;;15.90;1.83;;;5.50;99.90;;;;;;4941100;28;20043;-69
2022/01/17 01:33:16;;;;;;;14.63;2.13;;;5.50;99.90;;;;;;4939631;28;20058;-69
2022/01/17 01:35:46;;;;;;;13.10;1.50;;;5.50;99.90;;;;;;4940424;28;20051;-69
2022/01/17 01:38:12;;;;;;;19.80;3.05;;;5.50;99.90;;;;;;4933935;28;20043;-69
2022/01/17 01:40:38;;;;;;;15.60;1.73;;;5.50;99.90;;;;;;4934905;28;20060;-69
2022/01/17 01:43:04;;;;;;;16.27;2.25;;;5.50;99.90;;;;;;4934199;28;20072;-69
2022/01/17 01:45:29;;;;;;;11.95;1.85;;;5.60;99.90;;;;;;4936845;28;20081;-69
2022/01/17 01:47:55;;;;;;;10.60;1.40;;;5.60;99.90;;;;;;4933795;28;20050;-69
2022/01/17 01:50:22;;;;;;;10.32;1.60;;;5.60;99.90;;;;;;4942883;28;20035;-69
2022/01/17 01:52:48;;;;;;;15.15;2.10;;;5.60;99.90;;;;;;4935627;28;20505;-69
2022/01/17 01:55:16;;;;;;;13.30;2.40;;;5.60;99.90;;;;;;4932486;28;20090;-69
2022/01/17 01:57:43;;;;;;;11.00;1.77;;;5.60;99.90;;;;;;4935998;28;20126;-69
2022/01/17 02:00:12;;;;;;;10.48;1.52;;;5.60;99.90;;;;;;4934968;28;20054;-69
2022/01/17 02:02:38;;;;;;;14.25;2.08;;;5.60;99.90;;;;;;4937246;28;20052;-69
2022/01/17 02:05:04;;;;;;;14.98;2.10;;;5.70;99.90;;;;;;4941267;28;20152;-69
2022/01/17 02:07:30;;;;;;;15.15;2.30;;;5.50;99.90;;;;;;4934062;28;20059;-69
2022/01/17 02:09:56;;;;;;;12.73;1.85;;;5.50;99.90;;;;;;4935304;28;20051;-69
2022/01/17 02:12:23;;;;;;;15.57;2.13;;;5.50;99.90;;;;;;4935250;28;20067;-69
2022/01/17 02:14:50;;;;;;;14.85;2.35;;;5.50;99.90;;;;;;4942587;28;20411;-69
2022/01/17 02:17:16;;;;;;;15.55;2.25;;;5.50;99.90;;;;;;4930791;28;20056;-69
2022/01/17 02:19:46;;;;;;;11.93;2.03;;;5.50;99.90;;;;;;4933300;28;20039;-69
2022/01/17 02:22:13;;;;;;;11.85;1.60;;;5.50;99.90;;;;;;4931203;28;20052;-69
2022/01/17 02:24:39;;;;;;;18.75;2.90;;;5.50;99.90;;;;;;4935123;28;20043;-69
2022/01/17 02:27:04;;;;;;;15.30;1.73;;;5.50;99.90;;;;;;4940189;28;20055;-69
2022/01/17 02:29:30;;;;;;;16.27;2.30;;;5.50;99.90;;;;;;4938697;28;20559;-69
2022/01/17 02:31:56;;;;;;;14.30;2.08;;;5.60;99.90;;;;;;4940142;28;20438;-69
2022/01/17 02:34:22;;;;;;;25.20;2.30;;;5.50;99.90;;;;;;4939342;28;20046;-69
2022/01/17 02:36:48;;;;;;;19.02;2.00;;;5.40;99.90;;;;;;4940047;28;20048;-69
2022/01/17 02:39:14;;;;;;;22.38;2.58;;;5.40;99.90;;;;;;4938877;28;20051;-69
2022/01/17 02:41:42;;;;;;;16.75;1.92;;;5.40;99.90;;;;;;4940324;28;20063;-69
2022/01/17 02:44:08;;;;;;;14.48;1.90;;;5.40;99.90;;;;;;4937177;28;20460;-69
2022/01/17 02:46:34;;;;;;;12.00;2.47;;;5.40;99.90;;;;;;4933071;28;20063;-69
2022/01/17 02:49:03;;;;;;;25.67;2.38;;;5.40;99.90;;;;;;4939559;28;20063;-69
2022/01/17 02:51:28;;;;;;;12.32;1.92;;;5.40;99.90;;;;;;4938874;28;20066;-69
2022/01/17 02:53:55;;;;;;;15.55;2.03;;;5.40;99.90;;;;;;4936939;28;20495;-69
2022/01/17 02:56:21;;;;;;;15.00;2.83;;;5.40;99.90;;;;;;4939144;28;20066;-69
2022/01/17 02:58:47;;;;;;;15.13;2.50;;;5.40;99.90;;;;;;4936923;28;20062;-69
2022/01/17 03:01:16;;;;;;;14.77;2.42;;;5.40;99.90;;;;;;4937084;29;20070;-69
2022/01/17 03:03:42;;;;;;;10.93;1.45;;;5.40;99.90;;;;;;4936523;28;20051;-69
2022/01/17 03:06:09;;;;;;;18.73;1.92;;;5.30;99.90;;;;;;4936764;28;20083;-69
2022/01/17 03:08:36;;;;;;;12.02;1.75;;;5.30;99.90;;;;;;4940492;28;20067;-69
2022/01/17 03:11:05;;;;;;;17.35;2.38;;;5.40;99.90;;;;;;4932935;28;20056;-68
2022/01/17 03:13:33;;;;;;;12.68;1.67;;;5.40;99.90;;;;;;4940474;29;20486;-69
2022/01/17 03:16:07;;;;;;;14.25;2.75;;;5.40;99.90;;;;;;4935894;28;20064;-69
2022/01/17 03:18:39;;;;;;;15.90;1.52;;;5.40;99.90;;;;;;4933343;28;20093;-69
2022/01/17 03:21:07;;;;;;;16.38;2.22;;;5.40;99.90;;;;;;4931583;28;20051;-69
2022/01/17 03:23:34;;;;;;;19.38;1.70;;;5.40;99.90;;;;;;4932253;28;20071;-69
2022/01/17 03:26:00;;;;;;;15.90;1.55;;;5.40;99.90;;;;;;4934001;28;20044;-69
2022/01/17 03:28:26;;;;;;;14.15;2.40;;;5.40;99.90;;;;;;4940254;28;20070;-69
2022/01/17 03:30:53;;;;;;;14.30;1.85;;;5.40;99.90;;;;;;4937571;28;20510;-69
2022/01/17 03:33:19;;;;;;;12.57;1.92;;;5.40;99.90;;;;;;4934648;28;20047;-69
2022/01/17 03:35:46;;;;;;;19.98;2.35;;;5.40;99.90;;;;;;4931732;28;20050;-69
2022/01/17 03:38:13;;;;;;;11.90;2.10;;;5.40;99.90;;;;;;4931476;28;20043;-69
2022/01/17 03:40:39;;;;;;;15.32;1.52;;;5.40;99.90;;;;;;4940791;28;20059;-69
2022/01/17 03:43:05;;;;;;;14.23;2.13;;;5.40;99.90;;;;;;4936611;28;20039;-69
2022/01/17 03:45:32;;;;;;;20.15;1.70;;;5.40;99.90;;;;;;4937782;28;20070;-69
2022/01/17 03:47:57;;;;;;;17.75;2.35;;;5.50;99.90;;;;;;4931590;28;20047;-69
2022/01/17 03:50:25;;;;;;;22.48;1.85;;;5.50;99.90;;;;;;4941513;28;20537;-69
2022/01/17 03:52:51;;;;;;;10.98;2.10;;;5.50;99.90;;;;;;4933633;28;20055;-69
2022/01/17 03:55:19;;;;;;;9.95;1.80;;;5.50;99.90;;;;;;4936460;28;20066;-69
2022/01/17 03:57:45;;;;;;;16.27;2.20;;;5.50;99.90;;;;;;4944557;28;20048;-69
2022/01/17 04:00:20;;;;;;;16.58;2.20;;;5.50;99.90;;;;;;4937865;28;20040;-69
2022/01/17 04:02:47;;;;;;;10.68;1.90;;;5.50;99.90;;;;;;4938180;28;20142;-69
2022/01/17 04:05:13;;;;;;;15.77;1.90;;;5.50;99.90;;;;;;4931428;28;20118;-69
2022/01/17 04:07:39;;;;;;;14.73;2.00;;;5.40;99.90;;;;;;4934749;28;20570;-69
2022/01/17 04:10:05;;;;;;;10.63;1.80;;;5.40;99.90;;;;;;4930218;28;20158;-69
2022/01/17 04:12:31;;;;;;;15.88;1.80;;;5.50;99.90;;;;;;4938841;29;20101;-69
2022/01/17 04:14:56;;;;;;;15.48;1.83;;;5.50;99.90;;;;;;4935363;28;20430;-69
2022/01/17 04:17:29;;;;;;;16.15;2.65;;;5.40;99.90;;;;;;4928979;28;20051;-69
2022/01/17 04:20:04;;;;;;;16.33;2.03;;;5.40;99.90;;;;;;4932353;28;20075;-69
2022/01/17 04:22:36;;;;;;;15.40;1.45;;;5.40;99.90;;;;;;4936217;28;20553;-69
2022/01/17 04:25:04;;;;;;;15.02;2.10;;;5.40;99.90;;;;;;4939917;28;20475;-69
2022/01/17 04:27:29;;;;;;;16.40;2.28;;;5.40;99.90;;;;;;4936030;28;20056;-69
2022/01/17 04:29:55;;;;;;;14.57;1.70;;;5.40;99.90;;;;;;4929900;28;20051;-69
2022/01/17 04:32:21;;;;;;;15.65;2.13;;;5.50;99.90;;;;;;4934161;28;20457;-69
2022/01/17 04:34:46;;;;;;;14.07;1.75;;;5.40;99.90;;;;;;4937063;28;20495;-69
2022/01/17 04:37:12;;;;;;;13.48;1.95;;;5.50;99.90;;;;;;4941816;28;20430;-69
2022/01/17 04:39:38;;;;;;;14.07;1.92;;;5.50;99.90;;;;;;4934729;28;20039;-69
2022/01/17 04:42:10;;;;;;;21.75;1.73;;;5.40;99.90;;;;;;4933614;28;20455;-69
2022/01/17 04:47:20;;;;;;;10.18;1.40;;;5.50;99.90;;;;;;4945262;28;20055;-69
2022/01/17 04:49:46;;;;;;;20.58;1.90;;;5.50;99.90;;;;;;4934712;28;20048;-69
2022/01/17 04:52:13;;;;;;;16.67;2.63;;;5.50;99.90;;;;;;4930384;28;20105;-69
2022/01/17 04:54:42;;;;;;;11.88;1.58;;;5.50;99.90;;;;;;4934075;28;20058;-69
2022/01/17 04:57:09;;;;;;;14.63;1.92;;;5.60;99.90;;;;;;4938851;28;20040;-69
2022/01/17 04:59:35;;;;;;;12.40;1.92;;;5.60;99.90;;;;;;4943656;28;20043;-69
2022/01/17 05:02:00;;;;;;;14.43;1.50;;;5.60;99.90;;;;;;4941312;28;20051;-69
2022/01/17 05:04:26;;;;;;;13.00;1.83;;;5.60;99.90;;;;;;4934768;28;20111;-69
2022/01/17 05:06:52;;;;;;;11.95;1.67;;;5.70;99.90;;;;;;4934714;28;20079;-69
2022/01/17 05:09:17;;;;;;;17.70;2.85;;;5.60;99.90;;;;;;4934838;28;20134;-69
2022/01/17 05:11:43;;;;;;;12.30;2.38;;;5.70;99.90;;;;;;4943721;28;20059;-69
2022/01/17 05:14:09;;;;;;;11.90;2.22;;;5.70;99.90;;;;;;4943772;28;20435;-69
2022/01/17 05:16:37;;;;;;;15.45;1.88;;;5.80;99.90;;;;;;4941281;28;20057;-69
2022/01/17 05:21:47;;;;;;;15.20;1.70;;;5.70;99.90;;;;;;4935687;28;20475;-69
2022/01/17 05:24:12;;;;;;;11.95;1.58;;;5.70;99.90;;;;;;4934619;28;20047;-69
2022/01/17 05:26:38;;;;;;;20.92;2.42;;;5.80;99.90;;;;;;4942437;28;20046;-69
2022/01/17 05:29:03;;;;;;;20.45;2.20;;;5.80;99.90;;;;;;4933480;28;20035;-69
2022/01/17 05:31:29;;;;;;;22.00;3.15;;;5.80;99.90;;;;;;4934980;28;20046;-69
2022/01/17 05:33:55;;;;;;;13.40;2.22;;;5.90;99.90;;;;;;4935550;28;20056;-69
2022/01/17 05:36:20;;;;;;;15.18;2.60;;;5.90;99.90;;;;;;4940239;28;20490;-69
2022/01/17 05:38:46;;;;;;;14.10;2.47;;;5.90;99.90;;;;;;4934632;28;20047;-69
2022/01/17 05:41:11;;;;;;;19.27;2.58;;;5.90;99.90;;;;;;4941441;28;20056;-69
2022/01/17 05:43:37;;;;;;;19.83;3.55;;;5.90;99.90;;;;;;4941063;28;20056;-69
2022/01/17 05:46:02;;;;;;;19.17;2.22;;;5.90;99.90;;;;;;4938502;28;20046;-69
2022/01/17 05:48:28;;;;;;;26.25;2.90;;;5.90;99.90;;;;;;4940324;28;20051;-69
2022/01/17 05:50:53;;;;;;;24.70;2.88;;;5.90;99.90;;;;;;4942791;28;20047;-69
2022/01/17 05:53:19;;;;;;;21.50;3.38;;;6.00;99.90;;;;;;4942570;28;20047;-69
2022/01/17 05:55:45;;;;;;;20.27;3.40;;;6.00;99.90;;;;;;4933182;28;20052;-69
2022/01/17 05:58:11;;;;;;;18.42;3.03;;;6.00;99.90;;;;;;4937769;28;20067;-69
2022/01/17 06:00:37;;;;;;;17.00;2.97;;;6.10;99.90;;;;;;4932958;28;20086;-69
2022/01/17 06:03:02;;;;;;;19.80;3.30;;;6.00;99.90;;;;;;4936306;28;20110;-69
2022/01/17 06:05:28;;;;;;;21.88;3.25;;;6.00;99.90;;;;;;4933177;28;20036;-69
2022/01/17 06:07:54;;;;;;;14.45;2.97;;;6.00;99.90;;;;;;4936725;28;20043;-69
2022/01/17 06:10:19;;;;;;;14.73;3.15;;;6.00;99.90;;;;;;4934647;28;20043;-68
2022/01/17 06:12:45;;;;;;;18.67;3.15;;;6.00;99.90;;;;;;4955346;28;20486;-70
2022/01/17 06:15:10;;;;;;;17.05;3.55;;;6.00;99.90;;;;;;4945218;28;20407;-69
2022/01/17 06:17:36;;;;;;;15.93;3.47;;;6.10;99.90;;;;;;4944850;28;20135;-69
2022/01/17 06:20:03;;;;;;;15.65;3.47;;;6.10;99.90;;;;;;4936544;28;20102;-69
2022/01/17 06:22:29;;;;;;;14.50;2.95;;;6.10;99.90;;;;;;4933003;28;20079;-69
2022/01/17 06:24:55;;;;;;;21.98;4.07;;;6.10;99.90;;;;;;4941616;28;20129;-69
2022/01/17 06:27:20;;;;;;;18.02;3.92;;;6.10;99.90;;;;;;4937183;28;20395;-69
2022/01/17 06:29:46;;;;;;;21.95;3.63;;;6.10;99.90;;;;;;4930089;28;20510;-70
2022/01/17 06:32:11;;;;;;;13.90;3.63;;;6.10;99.90;;;;;;4938171;28;20053;-69
2022/01/17 06:34:37;;;;;;;15.80;2.92;;;6.00;99.90;;;;;;4937981;28;20418;-69
2022/01/17 06:37:03;;;;;;;15.23;3.85;;;6.10;99.90;;;;;;4938638;28;20487;-69
2022/01/17 06:39:28;;;;;;;16.95;3.17;;;6.10;99.90;;;;;;4936922;28;20488;-69
2022/01/17 06:41:54;;;;;;;21.55;3.70;;;6.10;99.90;;;;;;4933451;28;20044;-69
2022/01/17 06:44:20;;;;;;;17.05;3.30;;;6.10;99.90;;;;;;4940446;28;20136;-69
2022/01/17 06:46:45;;;;;;;18.08;3.33;;;6.10;99.90;;;;;;4934615;28;20075;-69
2022/01/17 06:49:11;;;;;;;19.63;3.58;;;6.10;99.90;;;;;;4936303;28;20036;-69
2022/01/17 06:51:37;;;;;;;18.88;5.78;;;6.00;99.90;;;;;;4939790;28;20194;-69
2022/01/17 06:54:02;;;;;;;19.65;3.40;;;6.10;99.90;;;;;;4941569;28;20100;-69
2022/01/17 06:56:28;;;;;;;16.52;4.05;;;6.00;99.90;;;;;;4934700;28;20149;-69
2022/01/17 06:58:54;;;;;;;17.77;4.35;;;6.10;99.90;;;;;;4939728;28;20059;-69
2022/01/17 07:01:21;;;;;;;19.60;3.55;;;6.00;99.90;;;;;;4940245;28;20084;-71
2022/01/17 07:03:48;;;;;;;25.92;4.55;;;6.00;99.90;;;;;;4935798;28;20052;-71
2022/01/17 07:06:14;;;;;;;21.42;4.05;;;6.00;99.90;;;;;;4935822;28;20148;-71
2022/01/17 07:08:40;;;;;;;26.30;4.53;;;6.00;99.90;;;;;;4935316;28;20503;-71
2022/01/17 07:11:06;;;;;;;23.95;4.53;;;6.10;99.90;;;;;;4935401;28;20430;-71
2022/01/17 07:13:32;;;;;;;26.48;4.40;;;6.10;99.90;;;;;;4934908;28;20047;-70
2022/01/17 07:15:58;;;;;;;25.50;5.30;;;6.10;99.90;;;;;;4931286;28;20093;-71
2022/01/17 07:18:23;;;;;;;23.02;3.80;;;6.10;99.90;;;;;;4940908;28;20051;-72
2022/01/17 07:20:49;;;;;;;17.55;4.38;;;6.10;99.90;;;;;;4935059;28;20087;-72
2022/01/17 07:23:16;;;;;;;16.25;3.63;;;6.10;99.90;;;;;;4937308;28;20044;-72
2022/01/17 07:25:42;;;;;;;22.05;4.47;;;6.10;99.90;;;;;;4933548;28;20043;-71
2022/01/17 07:28:08;;;;;;;29.13;4.70;;;6.00;99.90;;;;;;4942080;28;20051;-71
2022/01/17 07:30:35;;;;;;;24.17;3.70;;;6.10;99.90;;;;;;4931175;28;20070;-71
2022/01/17 07:33:01;;;;;;;25.48;4.18;;;6.10;99.90;;;;;;4933647;28;20048;-71
2022/01/17 07:35:27;;;;;;;23.20;4.68;;;6.20;99.90;;;;;;4931988;28;20047;-72
2022/01/17 07:37:52;;;;;;;22.42;5.10;;;6.10;99.90;;;;;;4932583;28;20057;-72
2022/01/17 07:40:18;;;;;;;22.70;4.00;;;6.10;99.90;;;;;;4938355;28;20186;-71
2022/01/17 07:42:43;;;;;;;28.67;4.82;;;6.10;99.90;;;;;;4932220;28;20074;-72
2022/01/17 07:45:12;;;;;;;25.35;3.17;;;6.20;99.90;;;;;;4932202;28;20138;-71
2022/01/17 07:47:56;;;;;;;19.85;3.28;;;6.20;99.90;;;;;;4929680;28;20079;-72
2022/01/17 07:50:23;;;;;;;20.92;3.67;;;6.20;99.90;;;;;;4933187;28;20043;-73
2022/01/17 07:52:52;;;;;;;27.55;4.13;;;6.20;99.90;;;;;;4934853;28;20078;-71
2022/01/17 07:55:19;;;;;;;19.70;3.45;;;6.20;99.90;;;;;;4941935;28;20090;-71
2022/01/17 07:57:46;;;;;;;17.80;3.53;;;6.30;99.90;;;;;;4933178;28;20079;-71
2022/01/17 08:00:15;;;;;;;25.52;3.88;;;6.30;99.90;;;;;;4931100;28;20039;-71
2022/01/17 08:02:41;;;;;;;23.35;3.42;;;6.30;99.90;;;;;;4934809;28;20062;-71
2022/01/17 08:05:14;;;;;;;27.33;4.20;;;6.30;99.90;;;;;;4939208;28;20039;-75
2022/01/17 08:07:44;;;;;;;27.08;4.05;;;6.30;99.90;;;;;;4933374;28;20059;-73
2022/01/17 08:10:13;;;;;;;24.58;4.25;;;6.30;99.90;;;;;;4931064;28;20146;-73
2022/01/17 08:12:44;;;;;;;31.92;3.55;;;6.30;99.90;;;;;;4931366;28;20147;-73
2022/01/17 08:15:11;;;;;;;22.65;4.45;;;6.40;99.90;;;;;;4921409;28;20047;-73
2022/01/17 08:17:37;;;;;;;26.50;4.10;;;6.40;99.90;;;;;;4930926;28;20058;-73
2022/01/17 08:20:05;;;;;;;29.77;3.65;;;6.40;99.90;;;;;;4927382;28;20126;-74
2022/01/17 08:22:30;;;;;;;24.25;4.75;;;6.40;99.90;;;;;;4927503;28;20209;-74
2022/01/17 08:24:56;;;;;;;17.35;3.88;;;6.50;99.90;;;;;;4925637;28;20072;-74
2022/01/17 08:27:21;;;;;;;22.50;3.50;;;6.40;99.90;;;;;;4926512;28;20122;-74
2022/01/17 08:29:47;;;;;;;17.75;3.63;;;6.50;99.90;;;;;;4925738;28;20101;-72
2022/01/17 08:32:13;;;;;;;21.45;3.70;;;6.50;99.90;;;;;;4934736;28;20057;-76
2022/01/17 08:34:38;;;;;;;31.25;3.65;;;6.50;99.90;;;;;;4932881;28;20054;-76
2022/01/17 08:37:05;;;;;;;21.50;3.92;;;6.60;99.90;;;;;;4925928;28;20039;-76
2022/01/17 08:39:31;;;;;;;28.17;4.20;;;6.60;99.90;;;;;;4934818;28;20167;-74
2022/01/17 08:41:58;;;;;;;29.17;3.72;;;6.60;99.90;;;;;;4933999;28;20040;-74
2022/01/17 08:44:24;;;;;;;29.17;4.07;;;7.10;99.90;;;;;;4929314;28;20048;-74
2022/01/17 08:46:51;;;;;;;42.53;12.30;;;6.70;99.90;;;;;;4925595;28;20051;-75
2022/01/17 08:49:17;;;;;;;35.28;4.13;;;6.70;99.90;;;;;;4933215;28;20054;-74
2022/01/17 08:51:44;;;;;;;28.02;4.10;;;6.70;99.90;;;;;;4931232;28;20411;-74
2022/01/17 08:54:10;;;;;;;41.00;4.70;;;6.70;99.90;;;;;;4934539;29;20059;-74
2022/01/17 08:56:35;;;;;;;28.67;5.78;;;6.80;99.90;;;;;;4929871;28;20066;-75
2022/01/17 08:59:02;;;;;;;30.60;4.72;;;6.80;99.90;;;;;;4932692;28;20055;-74
2022/01/17 09:01:29;;;;;;;31.17;5.13;;;6.80;99.90;;;;;;4937707;28;20154;-74
2022/01/17 09:03:55;;;;;;;25.48;3.60;;;6.90;99.90;;;;;;4930097;28;20043;-74
2022/01/17 09:06:23;;;;;;;20.38;3.33;;;6.90;99.90;;;;;;4925914;28;20051;-74
2022/01/17 09:08:49;;;;;;;26.83;4.40;;;7.00;99.90;;;;;;4935627;28;20075;-74
2022/01/17 09:11:14;;;;;;;25.65;4.47;;;7.00;99.90;;;;;;4929479;28;20139;-74
2022/01/17 09:13:40;;;;;;;31.00;4.53;;;7.00;99.90;;;;;;4933820;28;20939;-74
2022/01/17 09:16:08;;;;;;;37.05;3.88;;;7.10;99.90;;;;;;4927020;28;20134;-74
2022/01/17 09:18:34;;;;;;;27.15;4.45;;;7.10;99.90;;;;;;4930906;28;20097;-74
2022/01/17 09:20:59;;;;;;;32.17;4.40;;;7.10;99.90;;;;;;4933844;28;20043;-74
2022/01/17 09:23:25;;;;;;;23.92;4.53;;;7.20;99.90;;;;;;4934079;28;20069;-74
2022/01/17 09:25:51;;;;;;;32.00;4.22;;;7.20;99.90;;;;;;4927591;28;20043;-74
2022/01/17 09:28:17;;;;;;;35.03;4.60;;;7.30;99.90;;;;;;4935834;28;20055;-74
2022/01/17 09:30:42;;;;;;;30.40;4.75;;;7.30;99.90;;;;;;4928769;28;20062;-74
2022/01/17 09:33:08;;;;;;;36.33;5.18;;;7.30;99.90;;;;;;4931213;28;20181;-74
2022/01/17 09:35:35;;;;;;;24.83;4.28;;;7.40;99.90;;;;;;4926777;28;20051;-74
2022/01/17 09:38:01;;;;;;;32.47;5.10;;;7.50;99.90;;;;;;4933153;28;20043;-74
2022/01/17 09:40:27;;;;;;;32.50;4.40;;;7.60;99.90;;;;;;4929493;28;20055;-74
2022/01/17 09:42:54;;;;;;;30.50;5.28;;;7.50;99.90;;;;;;4932780;28;20733;-75
2022/01/17 09:45:21;;;;;;;38.03;4.85;;;7.60;99.90;;;;;;4925072;28;20079;-74
2022/01/17 09:47:47;;;;;;;28.38;4.20;;;7.60;99.90;;;;;;4927147;28;20044;-74
2022/01/17 09:50:31;;;;;;;32.85;4.97;;;7.60;99.90;;;;;;4932909;28;20524;-74
2022/01/17 09:52:59;;;;;;;28.02;5.22;;;7.60;99.90;;;;;;4933338;28;20383;-74
2022/01/17 09:55:27;;;;;;;37.95;3.97;;;7.70;99.90;;;;;;4924188;28;20056;-74
2022/01/17 09:58:09;;;;;;;32.30;5.55;;;7.70;99.90;;;;;;4935963;28;20051;-76
2022/01/17 10:00:44;;;;;;;32.05;4.60;;;7.70;99.90;;;;;;4932581;28;20055;-74
2022/01/17 10:03:12;;;;;;;28.90;4.95;;;7.70;99.90;;;;;;4930573;28;20299;-74
2022/01/17 10:05:39;;;;;;;30.77;5.53;;;7.70;99.90;;;;;;4925540;28;20475;-74
2022/01/17 10:08:16;;;;;;;27.95;4.82;;;7.70;99.90;;;;;;4932882;28;20051;-74
2022/01/17 10:10:50;;;;;;;33.70;5.55;;;7.80;99.90;;;;;;4930655;28;20125;-74
2022/01/17 10:13:23;;;;;;;;;;;7.80;99.90;;;;;;4936425;28;20063;-74
2022/01/17 10:16:07;;;;;;;28.88;5.43;;;7.80;99.90;;;;;;4924095;28;19941;-74
2022/01/17 10:18:39;;;;;;;37.83;4.93;;;7.90;99.90;;;;;;4930312;28;20059;-74
2022/01/17 10:21:15;;;;;;;30.48;5.55;;;7.90;99.90;;;;;;4928602;28;20055;-74
2022/01/17 10:24:19;;;;;;;37.53;5.95;;;8.00;99.90;;;;;;4932418;29;20727;-74
2022/01/17 10:37:19;;;;;;;35.60;5.45;;;8.10;99.90;;;;;;4928322;28;20142;-74
2022/01/17 10:39:55;;;;;;;37.35;5.95;;;8.10;99.90;;;;;;4930969;28;20074;-74
2022/01/17 10:42:26;;;;;;;30.70;5.88;;;8.10;99.90;;;;;;4931864;28;20499;-74
2022/01/17 10:44:52;;;;;;;33.90;6.47;;;8.20;99.90;;;;;;4925133;28;20054;-75
2022/01/17 10:47:26;;;;;;;35.92;5.40;;;8.20;99.90;;;;;;4930835;28;20040;-74
2022/01/17 10:49:52;;;;;;;;;;;8.20;99.90;;;;;;4929108;28;20159;-74
2022/01/17 10:52:42;;;;;;;33.30;4.93;;;8.40;99.90;;;;;;4932705;28;20389;-74
2022/01/17 10:55:13;;;;;;;41.05;5.55;;;8.20;99.90;;;;;;4924293;28;20140;-74
2022/01/17 10:57:42;;;;;;;27.35;5.65;;;8.20;99.90;;;;;;4931338;28;20116;-74
2022/01/17 11:00:13;;;;;;;34.08;5.68;;;8.20;99.90;;;;;;4930264;28;20066;-74
2022/01/17 11:02:47;;;;;;;32.58;6.43;;;8.20;99.90;;;;;;4932618;28;20043;-76
2022/01/17 11:05:14;;;;;;;44.03;6.17;;;8.20;99.90;;;;;;4925060;28;20054;-77
2022/01/17 11:07:45;;;;;;;47.72;6.72;;;8.20;99.90;;;;;;4932648;28;20067;-77
2022/01/17 11:10:36;;;;;;;34.05;6.15;;;8.20;99.90;;;;;;4929800;28;20048;-77
2022/01/17 11:13:05;;;;;;;37.30;5.30;;;8.30;99.90;;;;;;4928414;28;20074;-74
2022/01/17 11:15:33;;;;;;;33.60;5.80;;;8.30;99.90;;;;;;4923992;28;20051;-76
2022/01/17 11:18:16;;;;;;;40.53;6.03;;;8.40;99.90;;;;;;4931341;28;20043;-75
2022/01/17 11:20:42;;;;;;;39.17;6.07;;;8.40;99.90;;;;;;4936626;28;20051;-75
2022/01/17 11:23:07;;;;;;;40.65;6.07;;;8.50;99.90;;;;;;4932413;28;20199;-75
2022/01/17 11:25:39;;;;;;;39.42;6.05;;;8.50;99.90;;;;;;4925381;28;20051;-75
2022/01/17 11:28:06;;;;;;;34.17;5.85;;;8.50;99.90;;;;;;4932068;28;20126;-75
2022/01/17 11:30:34;;;;;;;43.70;7.05;;;8.50;99.90;;;;;;4927136;28;20059;-75
2022/01/17 11:33:03;;;;;;;36.80;5.57;;;8.50;99.90;;;;;;4930282;28;20193;-75
2022/01/17 11:35:31;;;;;;;42.30;7.30;;;8.50;99.90;;;;;;4925777;28;20040;-75
2022/01/17 11:37:59;;;;;;;33.83;6.38;;;8.50;99.90;;;;;;4933025;28;20058;-75
2022/01/17 11:40:37;;;;;;;44.47;7.45;;;8.50;99.90;;;;;;4929357;28;20067;-75
2022/01/17 11:43:35;;;;;;;31.90;6.05;;;8.50;99.90;;;;;;4929351;28;20065;-75
2022/01/17 11:46:17;;;;;;;48.00;6.53;;;8.60;99.90;;;;;;4922832;28;20146;-75
2022/01/17 11:49:16;;;;;;;33.28;6.22;;;8.60;99.90;;;;;;4934958;28;20086;-76
2022/01/17 11:51:45;;;;;;;48.28;7.13;;;8.60;99.90;;;;;;4941998;28;20062;-75
2022/01/17 11:54:20;;;;;;;45.53;7.45;;;8.60;99.90;;;;;;4928200;28;21416;-75
2022/01/17 11:57:04;;;;;;;36.13;6.80;;;8.60;99.90;;;;;;4927194;28;20047;-75
2022/01/17 11:59:39;;;;;;;37.30;6.32;;;8.60;99.90;;;;;;4932815;28;20055;-69
2022/01/17 12:02:33;;;;;;;39.88;6.18;;;8.60;99.90;;;;;;4930920;28;20086;-71
2022/01/17 12:05:07;;;;;;;36.20;5.95;;;8.60;99.90;;;;;;4927943;28;20101;-77
2022/01/17 12:07:54;;;;;;;30.52;6.00;;;8.60;99.90;;;;;;4934628;28;20162;-77
2022/01/17 12:10:25;;;;;;;38.85;6.00;;;8.60;99.90;;;;;;4936246;28;20051;-77
2022/01/17 12:13:15;;;;;;;40.28;6.97;;;8.60;99.90;;;;;;4930319;28;20047;-77
2022/01/17 12:16:07;;;;;;;35.88;6.28;;;8.60;99.90;;;;;;4925197;28;20066;-77
2022/01/17 12:18:40;;;;;;;36.17;7.30;;;8.60;99.90;;;;;;4931590;28;20448;-77
2022/01/17 12:21:40;;;;;;;39.65;7.70;;;8.70;99.90;;;;;;4932585;28;20050;-77
2022/01/17 12:24:15;;;;;;;31.55;6.22;;;8.70;99.90;;;;;;4932690;28;20059;-76
2022/01/17 12:26:42;;;;;;;40.67;6.68;;;8.80;99.90;;;;;;4926493;28;21017;-76
2022/01/17 12:29:08;;;;;;;38.47;6.97;;;8.80;99.90;;;;;;4925757;28;20047;-75
2022/01/17 12:31:47;;;;;;;41.92;6.30;;;8.80;99.90;;;;;;4934200;28;20058;-76
2022/01/17 12:34:23;;;;;;;41.15;5.95;;;8.80;99.90;;;;;;4932444;28;20055;-75
2022/01/17 12:36:50;;;;;;;31.67;5.32;;;8.80;99.90;;;;;;4920251;28;20142;-74
2022/01/17 12:39:22;;;;;;;37.83;6.50;;;8.70;99.90;;;;;;4932046;28;20546;-75
2022/01/17 12:41:52;;;;;;;37.13;6.05;;;8.70;99.90;;;;;;4928551;28;20101;-73
2022/01/17 12:44:22;;;;;;;40.47;5.80;;;8.70;99.90;;;;;;4928049;28;20082;-75
2022/01/17 12:46:51;;;;;;;31.38;5.22;;;9.20;99.90;;;;;;4924623;28;20135;-72
2022/01/17 12:49:17;;;;;;;41.40;5.72;;;8.70;99.90;;;;;;4930526;28;20434;-75
2022/01/17 12:51:45;;;;;;;37.88;5.72;;;8.70;99.90;;;;;;4929395;28;20125;-75
2022/01/17 12:54:14;;;;;;;33.88;6.35;;;8.70;99.90;;;;;;4928146;28;20181;-74
2022/01/17 12:56:41;;;;;;;26.67;5.47;;;8.70;99.90;;;;;;4921772;28;20462;-75
2022/01/17 12:59:09;;;;;;;39.35;5.75;;;8.70;99.90;;;;;;4927258;28;20066;-75
2022/01/17 13:01:34;;;;;;;41.53;6.32;;;8.70;99.90;;;;;;4930550;28;20150;-75
2022/01/17 13:04:04;;;;;;;30.75;5.68;;;8.70;99.90;;;;;;4927825;28;20162;-75
2022/01/17 13:06:31;;;;;;;42.58;6.20;;;8.70;99.90;;;;;;4922820;28;20058;-75
2022/01/17 13:08:59;;;;;;;39.17;6.07;;;8.70;99.90;;;;;;4930366;28;20498;-75
2022/01/17 13:11:26;;;;;;;32.70;5.20;;;8.70;99.90;;;;;;4929110;28;20051;-75
2022/01/17 13:13:58;;;;;;;39.88;5.88;;;8.70;99.90;;;;;;4927938;28;20055;-73
2022/01/17 13:16:24;;;;;;;25.08;5.75;;;8.70;99.90;;;;;;4940012;28;20097;-78
2022/01/17 13:18:52;;;;;;;38.50;5.72;;;8.70;99.90;;;;;;4934855;28;20055;-78